x

8536110 - Cape May, Nj (cman4) Weather Station

1:30am - Mon 25th Jul 2016 All times are EDT. -4 hours from GMT.

  • Wind
    7mph, 8mph gusts
  • Sea Temp 74°f
  • Air Temp 77°f
  • Sea Pressure 1014.4mb
  • 8536110 - Cape May, Nj
  • 8536110 - Cape May, Nj

More Historic Weather Station data

Upgrade to MSW Pro to gain access to the past 30 days of data for over 8000 Wavebouys and Weather Stations around the globe.

Join Pro

Comparision Forecast

View Surf forecast
   
Mon 07/25 1:30am 7 8 mph 1014.4mb 74f 77f
1:24am 6 8 mph 1014.4mb 74f 77f
1:18am 6 8 mph 1014.5mb 74f 77f
1:12am 7 9 mph 1014.6mb 74f 77f
1:06am 6 8 mph 1014.6mb 74f 77f
1:00am 6 9 mph 1014.7mb 74f 77f
12:54am 7 9 mph 1014.7mb 74f 77f
12:48am 6 9 mph 1014.7mb 74f 77f
12:42am 7 10 mph 1014.7mb 74f 77f
12:36am 6 8 mph 1014.7mb 74f 77f
12:30am 8 10 mph 1014.8mb 74f 77f
12:24am 6 11 mph 1014.8mb 74f 77f
12:18am 7 11 mph 1014.7mb 74f 77f
12:12am 8 11 mph 1014.8mb 74f 77f
12:06am 8 10 mph 1014.9mb 74f 77f
12:00am 7 9 mph 1014.9mb 73f 77f
Sun 07/24 11:54pm 8 11 mph 1015mb 73f 77f
11:48pm 9 14 mph 1015.1mb 73f 77f
11:42pm 8 10 mph 1015.1mb 73f 77f
11:36pm 8 10 mph 1015.1mb 73f 77f
11:30pm 8 10 mph 1015.2mb 73f 77f
11:24pm 9 14 mph 1015.2mb 73f 77f
11:18pm 9 13 mph - 73f 77f
11:12pm 8 11 mph - 73f 77f
11:06pm 8 10 mph - 73f 77f
11:00pm  -  mph 1015.6mb 73f -
10:54pm  -  mph 1015.7mb 73f -
10:48pm 8 9 mph 1015.7mb 73f -
10:42pm 7 9 mph 1015.8mb 73f -
10:36pm 7 9 mph 1015.7mb 73f -
10:30pm 8 11 mph - 73f -
10:24pm 8 13 mph - 73f -
10:18pm 8 11 mph 1015.8mb 73f 77f
10:12pm 8 11 mph 1015.8mb 73f 77f
10:06pm 8 10 mph 1015.7mb 72f 77f
10:00pm  -  mph - 72f 77f
9:54pm  -  mph - 72f 77f
9:48pm 9 11 mph - 72f -
9:42pm 8 11 mph - 72f -
9:36pm 8 11 mph - 72f -
9:30pm 8 10 mph 1015.2mb 72f -
9:24pm 8 10 mph 1015.2mb 72f -
9:18pm 7 9 mph 1015.2mb 72f -
9:12pm 6 7 mph 1015.1mb 72f -
9:06pm 7 10 mph 1015mb 72f -
9:00pm 8 10 mph - 72f 77f
8:54pm 8 10 mph - 72f 77f
8:48pm 7 9 mph 1015mb 72f -
8:42pm 6 8 mph 1014.9mb 72f -
8:36pm 6 8 mph 1014.9mb 72f -
8:30pm 6 8 mph - - -
8:24pm 7 8 mph - - -
8:18pm 7 8 mph - 73f 78f
8:12pm 7 8 mph - 73f 78f
8:06pm 6 7 mph - 73f 78f
8:00pm  -  mph - 73f 78f
7:54pm  -  mph - 73f 78f
7:48pm 8 10 mph - - -
7:42pm 8 10 mph - - -
7:36pm 7 8 mph - - -
7:30pm 8 10 mph - 73f -
7:24pm 8 10 mph - 73f -
7:18pm 7 9 mph - 73f -
7:12pm 7 9 mph - 73f -
7:06pm 7 8 mph - 73f -
7:00pm  -  mph - 74f 81f
6:54pm  -  mph - 74f 81f
6:48pm 9 10 mph - - -
6:42pm 6 10 mph - - -
6:36pm 8 10 mph - - -
6:30pm 8 10 mph - 74f -
6:24pm 8 10 mph - 74f -
6:18pm 6 8 mph 1014.5mb 74f 81f
6:12pm 8 10 mph 1014.5mb 74f 81f
6:06pm 9 10 mph 1014.6mb 74f 81f
6:00pm  -  mph - 74f 81f
5:54pm  -  mph - 74f 81f
5:48pm 9 11 mph - 73f 81f
5:42pm 9 11 mph - 73f 81f
5:36pm 10 11 mph - 73f 81f
5:30pm 9 11 mph 1014.7mb 73f 82f
5:24pm 9 13 mph 1014.7mb 73f 82f
5:18pm 9 10 mph 1014.7mb 73f 82f
5:12pm 9 13 mph 1014.8mb 73f 82f
5:06pm 9 11 mph 1014.8mb 73f 82f
5:00pm 8 11 mph 1014.8mb 73f 82f
4:54pm 10 13 mph 1014.7mb 73f 82f
4:48pm 10 14 mph 1014.7mb 72f 83f
4:42pm 9 13 mph 1014.7mb 72f 83f
4:36pm 13 16 mph 1014.7mb 71f 83f
4:30pm 13 14 mph 1014.8mb 72f 83f
4:24pm 11 15 mph 1014.8mb 72f 83f
4:18pm 13 15 mph 1014.8mb 72f 83f
4:12pm 11 15 mph 1014.8mb 71f 83f
4:06pm 9 11 mph 1014.9mb 71f 83f
4:00pm 13 15 mph 1014.9mb 71f 83f
3:54pm 11 14 mph 1014.9mb 71f 83f
3:48pm 10 14 mph 1014.9mb 71f 83f
3:42pm 10 14 mph 1014.9mb 71f 83f
3:36pm 11 14 mph 1014.9mb 71f 83f
3:30pm 10 14 mph 1014.9mb 71f 83f
3:24pm 10 17 mph 1014.9mb 71f 83f
3:18pm 8 11 mph 1015mb 70f 83f
3:12pm 8 14 mph 1015.1mb 70f 83f
3:06pm 11 14 mph 1015.1mb 70f 83f
3:00pm 10 14 mph 1015.2mb 70f 83f
2:54pm 8 10 mph 1015.3mb 70f 83f
2:48pm 9 11 mph 1015.4mb 70f 83f
2:42pm 10 13 mph 1015.3mb 71f 84f
2:36pm 10 14 mph 1015.4mb 71f 84f
2:30pm 8 11 mph 1015.5mb 71f 84f
2:24pm 8 14 mph 1015.6mb 71f 84f
2:18pm 8 11 mph 1015.6mb 71f 83f
2:12pm 10 14 mph 1015.6mb 71f 83f
2:06pm 7 10 mph 1015.7mb 70f 83f
2:00pm 7 10 mph 1015.8mb 70f 83f
1:54pm 9 13 mph 1015.7mb 71f 83f
1:48pm 7 9 mph 1015.8mb 72f 83f
1:42pm 7 10 mph 1015.8mb 73f 82f
1:36pm 8 11 mph 1015.8mb 72f 82f
1:30pm 8 10 mph 1015.9mb 73f 82f
1:24pm 8 10 mph 1015.9mb 73f 82f
1:18pm 8 10 mph 1015.9mb 74f 83f
1:12pm 9 11 mph 1015.9mb 74f 83f
1:06pm 9 13 mph 1015.9mb 74f 83f
1:00pm 9 11 mph 1015.9mb 74f 83f
12:54pm 7 8 mph 1015.9mb 74f 82f
12:48pm 7 10 mph 1015.8mb 74f 82f
12:42pm 6 10 mph 1015.8mb 74f 83f
12:36pm 7 11 mph 1015.7mb 74f 83f
12:30pm 7 10 mph 1015.7mb 74f 83f
12:24pm 8 14 mph 1015.7mb 74f 83f
12:18pm 9 11 mph 1015.8mb 74f 83f
12:12pm 7 11 mph 1015.8mb 74f 83f
12:06pm 6 9 mph 1015.8mb 74f 83f
12:00pm 9 14 mph 1015.7mb 74f 83f
11:54am 8 13 mph 1015.7mb 74f 83f
11:48am 8 11 mph 1015.6mb 74f 83f
11:42am 10 14 mph 1015.5mb 74f 83f
11:36am 9 14 mph 1015.4mb 73f 84f
11:30am 10 15 mph 1015.4mb 73f 84f
11:24am 8 11 mph 1015.3mb 73f 84f
11:18am 10 13 mph 1015.2mb 73f 84f
11:12am 9 13 mph 1015.2mb 73f 84f
11:06am 8 14 mph 1015.2mb 73f 85f
11:00am 8 14 mph 1015.2mb 73f 85f
10:54am 6 10 mph 1015.2mb 73f 85f
10:48am 6 7 mph 1015.2mb 73f 85f
10:42am 7 9 mph 1015.2mb 73f 85f
10:36am 8 10 mph 1015.1mb 73f 84f
10:30am 7 9 mph 1015.1mb 73f 84f
10:24am 6 7 mph 1015.1mb 73f 85f
10:18am 7 10 mph 1015mb 73f 83f
10:12am 6 10 mph 1014.9mb 73f 84f
10:06am 6 8 mph 1014.9mb 73f 84f
10:00am 6 7 mph 1014.8mb 73f 85f
9:54am 6 7 mph 1014.8mb 73f 85f
9:48am 2 5 mph 1014.8mb 73f 85f
9:42am 6 7 mph 1014.8mb 73f 84f
9:36am 6 7 mph 1014.7mb 73f 84f
9:30am 6 7 mph 1014.7mb 73f 83f
9:24am 6
mph
1014.6mb 73f 84f
9:18am 5 7 mph 1014.6mb 73f 84f
9:12am 6 7 mph 1014.6mb 73f 83f
9:06am 5 7 mph 1014.5mb 73f 83f
9:00am 7 9 mph 1014.6mb 73f 83f
8:54am 6 8 mph 1014.6mb 73f 83f
8:48am 6 9 mph 1014.6mb 73f 83f
8:42am 7 9 mph 1014.5mb 73f 82f
8:36am 5 7 mph 1014.5mb 73f 83f
8:30am 5 9 mph 1014.5mb 73f 83f
8:24am 3 7 mph 1014.5mb 73f 83f
8:18am 6 11 mph 1014.5mb 73f 83f
8:12am 3 7 mph 1014.5mb 73f 83f
8:06am 6 8 mph 1014.5mb 74f 82f
8:00am 5 9 mph 1014.4mb 74f 82f
7:54am 5 7 mph 1014.5mb 74f 82f
7:48am 3 7 mph 1014.5mb 74f 82f
7:42am 2 7 mph 1014.5mb 74f 82f
7:36am 2 5 mph 1014.4mb 74f 83f
7:30am 2 5 mph 1014.4mb 74f 83f
7:24am 3 6 mph 1014.3mb 74f 81f
7:18am 3 7 mph 1014.2mb 74f 81f
7:12am 3 7 mph 1014.1mb 74f 80f
7:06am 5 7 mph 1014.1mb 74f 79f
7:00am 5 7 mph 1014.1mb 74f 79f
6:54am 1 6 mph 1014mb 74f 78f
6:48am 3 6 mph 1014mb 74f 78f
6:42am 2 5 mph 1014mb 74f 78f
6:36am  -  3 mph 1013.9mb 74f 78f
6:30am 2 3 mph 1013.9mb 74f 77f
6:24am 1 2 mph 1013.9mb 74f 76f
6:18am 1 2 mph 1013.8mb 74f 75f
6:12am 2 3 mph 1013.8mb 74f 76f
6:06am 3 6 mph 1013.7mb 74f 76f
6:00am 2 3 mph 1013.6mb 74f 76f
5:54am 2 6 mph 1013.6mb 74f 76f
5:48am 3 6 mph 1013.6mb 74f 76f
5:42am 2 3 mph 1013.6mb 74f 76f
5:36am 2 5 mph 1013.6mb 74f 76f
5:30am 3 5 mph 1013.6mb 74f 76f
5:24am 3 6 mph 1013.6mb 74f 76f
5:18am 3 6 mph 1013.5mb 74f 76f
5:12am  -  1 mph 1013.4mb 74f 76f
5:06am 1 3 mph 1013.3mb 74f 76f
5:00am 2 7 mph 1013.2mb 74f 76f
4:54am 2 5 mph 1013.2mb 74f 77f
4:48am 2 5 mph 1013.2mb 73f 77f
4:42am 2 5 mph 1013.1mb 73f 77f
4:36am 1 2 mph 1013mb 73f 76f
4:30am  -  2 mph 1013mb 73f 76f
4:24am 1 2 mph 1013mb 73f 76f
4:18am 1 3 mph 1013mb 73f 76f
4:12am 2 3 mph 1012.9mb 74f 76f
4:06am 2 3 mph 1013mb 74f 76f
4:00am 2
mph
1013.1mb 74f 76f
3:54am 2 3 mph 1013.1mb 74f 75f
3:48am 3
mph
1013.1mb 74f 75f
3:42am 1 2 mph 1013.1mb 74f 74f
3:36am 1 2 mph 1013mb 74f 76f
3:30am 1 2 mph 1013mb 74f 77f
3:24am 1
mph
1012.9mb 74f 77f
3:18am  -  1 mph 1013mb 74f 76f
3:12am 2 3 mph 1012.9mb 74f 77f
3:06am  -  2 mph 1012.9mb 74f 77f
3:00am 1 2 mph 1012.9mb 73f 77f
2:54am 1 3 mph 1012.9mb 73f 77f
2:48am 2 3 mph 1013mb 73f 77f
2:42am 2 5 mph 1013mb 72f 77f
2:36am 2 5 mph 1012.9mb 73f 77f
2:30am 2 5 mph 1012.8mb 73f 76f
2:24am  -  2 mph 1012.8mb 73f 76f
2:18am 1 2 mph 1012.8mb 74f 76f
2:12am 3
mph
1012.7mb 74f 76f
2:06am 3 5 mph 1012.6mb 74f 75f
2:00am 3 5 mph 1012.5mb 74f 75f
1:54am 2 3 mph 1012.4mb 73f 76f
1:48am  -  2 mph 1012.4mb 73f 76f
1:42am 1 2 mph 1012.4mb 73f 75f
1:36am 2
mph
1012.3mb 73f 75f
1:30am 2
mph
1012.3mb 73f 75f
1:24am 3 5 mph 1012.3mb 73f 76f
1:18am 3 5 mph 1012.3mb 73f 76f
1:12am 3 5 mph 1012.3mb 74f 77f
1:06am 5 6 mph 1012.3mb 75f 77f
1:00am 6 7 mph 1012.4mb 75f 77f
12:54am 6 8 mph 1012.3mb 75f 78f
12:48am 6 8 mph 1012.2mb 75f 78f
12:42am 5 6 mph 1012.3mb 75f 78f
12:36am 5 7 mph 1012.3mb 75f 78f
12:30am 5 6 mph 1012.3mb 75f 77f
12:24am 5 6 mph 1012.4mb 75f 77f
12:18am 3 6 mph 1012.4mb 75f 77f
12:12am 3 6 mph 1012.3mb 75f 77f
12:06am 6 7 mph 1012.2mb 75f 77f
12:00am 5 7 mph 1012.1mb 75f 77f
Sat 07/23 11:54pm 6 9 mph 1012.1mb 75f 77f
11:48pm 8 11 mph 1012.1mb 75f 77f
11:42pm 7 9 mph 1012.1mb 75f 77f
11:36pm 8 13 mph 1012.1mb 76f 78f
11:30pm 8 11 mph 1012mb 75f 78f
11:18pm 9 13 mph - 75f 77f
11:12pm 8 10 mph - 75f 78f
11:06pm 7 9 mph - 75f 78f
11:00pm  -  mph - 75f 78f
10:54pm  -  mph - 75f 79f
10:48pm 6 8 mph 1011.8mb - -
10:42pm 6 7 mph 1011.9mb - -
10:36pm 3 5 mph 1012mb - -
10:30pm 3 6 mph 1012mb - -
10:24pm 3 5 mph 1012.1mb - -
10:18pm  -  mph 1012.2mb 76f 78f
10:12pm  -  mph 1012.2mb 76f 79f
10:06pm  -  mph 1012.4mb 76f 78f
10:00pm  -  mph - 76f 79f
9:54pm  -  mph - 76f 79f
9:48pm  -  mph - 76f -
9:42pm  -  mph - 76f -
9:36pm  -  mph - 76f -
9:30pm 3
mph
- - -
9:24pm 5 6 mph - - -
9:18pm 5
mph
- 76f -
9:12pm 3 6 mph - 76f -
9:06pm 3 6 mph - 76f -
9:00pm  -  mph - 76f 82f
8:54pm  -  mph - 76f 82f
8:48pm 3 5 mph 1012mb - -
8:42pm 5 7 mph 1012mb - -
8:36pm 5 7 mph 1011.9mb - -
8:30pm 6 10 mph - - -
8:24pm 6 9 mph - - -
8:18pm 9 15 mph 1012mb 76f -
8:12pm 7 10 mph 1012.1mb 76f -
8:06pm 6 10 mph 1012mb 76f -
8:00pm  -  mph - 77f -
7:54pm  -  mph - 77f -
7:48pm 10 18 mph - - -
7:42pm 15 22 mph - - -
7:36pm 7 9 mph - - -
7:30pm 7 9 mph - - -
7:24pm 5 6 mph - - -
7:18pm 2 3 mph 1010.3mb 77f 85f
7:12pm 2
mph
1010.5mb 77f 85f
7:06pm  -  1 mph 1010.7mb 77f 85f
7:00pm  -  mph - 77f 85f
6:54pm  -  mph - 77f 84f
6:48pm  -  mph - 77f 84f
6:42pm  -  mph - 78f 84f
6:36pm  -  mph - 78f 85f
6:30pm 2 3 mph - - -
6:24pm 3 5 mph - - -
6:18pm  -  mph - 77f -
6:12pm  -  mph - 77f -
6:06pm  -  mph - 78f -
6:00pm  -  mph - 78f -
5:54pm  -  mph - 77f -
5:48pm 3 6 mph 1010.3mb - 87f
5:42pm 5 6 mph 1010.3mb - 86f
5:36pm 6 7 mph 1010.3mb - 86f
5:30pm 5 6 mph 1010.4mb 77f 85f
5:24pm 3 5 mph 1010.5mb 78f 85f
5:18pm 5 6 mph 1010.6mb 77f 84f
5:12pm 7 8 mph 1010.6mb 77f 84f
5:06pm 6 7 mph 1010.6mb 77f 84f
5:00pm 6 7 mph 1010.8mb 77f 84f
4:54pm 7 8 mph 1010.8mb 76f 84f
4:48pm 7 8 mph 1011mb 76f 84f
4:42pm 7 8 mph 1011mb 76f 85f
4:36pm 9 11 mph 1011mb 76f 84f
4:30pm 8 9 mph 1011.2mb 76f 84f
4:24pm 8 10 mph 1011.4mb 76f 84f
4:18pm 10 11 mph 1011.4mb 76f 85f
4:12pm 8 10 mph 1011.5mb 76f 85f
4:06pm 8 11 mph 1011.5mb 76f 86f
4:00pm 9 13 mph 1011.5mb 76f 85f
3:54pm 11 15 mph 1011.4mb 76f 85f
3:48pm 9 16 mph 1011.3mb 76f 86f
3:42pm 9 13 mph 1011.4mb 75f 86f
3:36pm 9 13 mph 1011.4mb 75f 87f
3:30pm 9 13 mph 1011.4mb 75f 87f
3:24pm 10 13 mph 1011.4mb 74f 87f
3:18pm 9 11 mph 1011.5mb 74f 86f
3:12pm 8 10 mph 1011.6mb 74f 86f
3:06pm 9 13 mph 1011.5mb 74f 86f
3:00pm 10 11 mph 1011.5mb 74f 85f
2:54pm 8 11 mph 1011.6mb 74f 85f
2:48pm 8 10 mph 1011.6mb 74f 85f
2:42pm 6 11 mph 1011.7mb 74f 85f
2:36pm 8 10 mph 1011.7mb 74f 85f
2:30pm 8 11 mph 1011.7mb 74f 83f
2:24pm 6
mph
1011.7mb 73f 86f
2:18pm 6
mph
1011.7mb 73f 87f
2:12pm 5
mph
1011.8mb 73f 86f
2:06pm 5 6 mph 1011.9mb 73f 86f
2:00pm 6
mph
1012mb 73f 86f
1:54pm 5
mph
1012mb 74f 86f
1:48pm 5 6 mph 1012mb 74f 86f
1:42pm 5 7 mph 1012.1mb 74f 86f
1:36pm 7
mph
1012.1mb 74f 86f
1:30pm 6 7 mph 1012.1mb 74f 85f
1:24pm 6 7 mph 1012.2mb 74f 85f
1:18pm 6 7 mph 1012.3mb 73f 85f
1:12pm 6
mph
1012.5mb 72f 85f
1:06pm 6 7 mph 1012.6mb 73f 84f
1:00pm 6 7 mph 1012.7mb 73f 84f
12:54pm 5 6 mph 1012.6mb 74f 85f
12:48pm 6 7 mph 1012.6mb 74f 85f
12:42pm 3 5 mph 1012.7mb 74f 83f
12:36pm 6 7 mph 1012.6mb 74f 83f
12:30pm 5 6 mph 1012.6mb 74f 83f
12:24pm 5 6 mph 1012.7mb 74f 83f
12:18pm 5 7 mph 1012.7mb 74f 83f
12:12pm 5 7 mph 1012.8mb 74f 82f
12:06pm 5 6 mph 1012.8mb 74f 83f
12:00pm 6 8 mph 1012.8mb 74f 85f
11:54am 6 7 mph 1012.9mb 74f 83f
11:48am 3 7 mph 1012.9mb 74f 87f
11:42am 5 8 mph 1013mb 74f 87f
11:36am 3 8 mph 1013mb 74f 86f
11:30am 7 9 mph 1013mb 74f 82f
11:24am 6 8 mph 1013mb 74f 81f
11:18am 8 9 mph 1013mb 74f 84f
11:12am 8 10 mph 1013mb 74f 85f
11:06am 5 7 mph 1012.9mb 74f 85f
11:00am 5 8 mph 1012.8mb 74f 86f
10:54am 5 7 mph 1012.9mb 74f 86f
10:48am 5 9 mph 1012.9mb 74f 85f
10:42am 5 7 mph 1012.9mb 74f 82f
10:36am 5 6 mph 1012.9mb 74f 81f
10:30am 6 7 mph 1012.8mb 74f 81f
10:24am 6 7 mph 1012.7mb 74f 81f
10:18am 6 7 mph 1012.7mb 74f 81f
10:12am 5 6 mph 1012.7mb 74f 82f
10:06am 5 8 mph 1012.7mb 74f 83f
10:00am 6 7 mph 1012.7mb 74f 83f
9:54am 3 6 mph 1012.7mb 73f 85f
9:48am 3 6 mph 1012.6mb 73f 86f
9:42am 3 7 mph 1012.5mb 73f 86f
9:36am 3 7 mph 1012.5mb 73f 84f
9:30am 8 10 mph 1012.5mb 73f 83f
9:24am 6 9 mph 1012.6mb 73f 84f
9:18am 6 8 mph 1012.6mb 73f 84f
9:12am 6 9 mph 1012.7mb 73f 84f
9:06am 7 9 mph 1012.7mb 73f 83f
9:00am 7 9 mph 1012.8mb 73f 83f
8:54am 7 10 mph 1012.7mb 73f 83f
8:48am 9 11 mph 1012.7mb 73f 83f
8:42am 9 13 mph 1012.6mb 73f 83f
8:36am 10 13 mph 1012.6mb 73f 83f
8:30am 10 13 mph 1012.7mb 73f 83f
8:24am 11 14 mph 1012.6mb 73f 83f
8:18am 11 14 mph 1012.7mb 74f 83f
8:12am 9 14 mph 1012.7mb 74f 83f
8:06am 10 13 mph 1012.8mb 74f 83f
8:00am 10 14 mph 1012.8mb 74f 82f
7:54am 10 14 mph 1012.8mb 74f 82f
7:48am 10 14 mph 1012.7mb 74f 82f
7:42am 10 14 mph 1012.7mb 74f 82f
7:36am 3 9 mph 1012.7mb 74f 83f
7:30am 3 10 mph 1012.6mb 74f 82f
7:24am 6 14 mph 1012.6mb 74f 82f
7:18am 6 14 mph 1012.5mb 74f 82f
7:12am 5 10 mph 1012.4mb 75f 82f
7:06am 5 10 mph 1012.4mb 75f 81f
7:00am 6 9 mph 1012.4mb 75f 81f
6:54am 3 6 mph 1012.5mb 75f 81f
6:48am 3 6 mph 1012.4mb 75f 80f
6:42am 5 8 mph 1012.4mb 75f 80f
6:36am 6 9 mph 1012.4mb 75f 79f
6:30am 6 9 mph 1012.3mb 75f 79f
6:24am 6 9 mph 1012.2mb 75f 79f
6:18am 9 14 mph 1012.1mb 75f 79f
6:12am 8 13 mph 1012mb 75f 79f
6:06am 9 13 mph 1012mb 75f 79f
6:00am 10 13 mph 1012mb 75f 79f
5:54am 9 11 mph 1012mb 75f 79f
5:48am 10 15 mph 1011.9mb 75f 79f
5:42am 10 13 mph 1011.9mb 75f 79f
5:36am 9 14 mph 1011.8mb 75f 79f
5:30am 11 14 mph 1011.7mb 75f 79f
5:24am 11 14 mph 1011.7mb 75f 79f
5:18am 13 14 mph 1011.6mb 75f 78f
5:12am 13 15 mph 1011.5mb 74f 79f
5:06am 13 15 mph 1011.5mb 74f 79f
5:00am 13 14 mph 1011.5mb 74f 79f
4:54am 13 15 mph 1011.5mb 74f 79f
4:48am 14 15 mph 1011.5mb 74f 79f
4:42am 13 15 mph 1011.6mb 74f 79f
4:36am 10 13 mph 1011.6mb 74f 78f
4:30am 11 14 mph 1011.6mb 74f 78f
4:24am 13 14 mph 1011.6mb 74f 78f
4:18am 13 14 mph 1011.7mb 74f 78f
4:12am 13 14 mph 1011.7mb 74f 78f
4:06am 10 13 mph 1011.8mb 74f 78f
4:00am 11 13 mph 1011.8mb 74f 78f
3:54am 11 13 mph 1011.7mb 74f 78f
3:48am 13 14 mph 1011.7mb 74f 78f
3:42am 13 14 mph 1011.7mb 74f 78f
3:36am 14 15 mph 1011.7mb 74f 78f
3:30am 14 15 mph 1011.8mb 74f 78f
3:24am 13 15 mph 1011.8mb 74f 78f
3:18am 14 16 mph 1011.7mb 74f 78f
3:12am 14 15 mph 1011.7mb 74f 78f
3:06am 14 15 mph 1011.7mb 74f 78f
3:00am 13 15 mph 1011.7mb 74f 78f
2:54am 14 16 mph 1011.7mb 74f 77f
2:48am 13 14 mph 1011.7mb 74f 77f
2:42am 11 14 mph 1011.7mb 74f 77f
2:36am 13 14 mph 1011.6mb 74f 77f
2:30am 13 14 mph 1011.7mb 73f 77f
2:24am 13 14 mph 1011.6mb 73f 77f
2:18am 13 14 mph 1011.7mb 74f 77f
2:12am 13 14 mph 1011.7mb 73f 77f
2:06am 13 14 mph 1011.7mb 74f 77f
2:00am 13 15 mph 1011.7mb 74f 77f
1:54am 13 15 mph 1011.7mb 74f 77f
1:48am 14 16 mph 1011.6mb 74f 77f
1:42am 14 15 mph 1011.6mb 74f 77f
1:36am 14 15 mph 1011.6mb 74f 76f
1:30am 14 16 mph 1011.6mb 74f 76f
1:24am 13 15 mph 1011.7mb 74f 76f
1:18am 11 14 mph 1011.7mb 74f 76f
1:12am 11 13 mph 1011.8mb 74f 76f
1:06am 9 11 mph 1011.8mb 74f 75f
1:00am 9 11 mph 1011.9mb 74f 75f
12:54am 7 10 mph 1011.9mb 74f 75f
12:48am 7 10 mph 1012mb 74f 75f
12:42am 9 11 mph 1012mb 74f 75f
12:36am 10 13 mph 1012mb 74f 75f
12:30am 8 13 mph 1012mb 75f 75f
12:24am 9 13 mph 1012mb 75f 76f
12:18am 9 11 mph 1012.1mb 75f 76f
12:12am 10 13 mph 1012.2mb 75f 76f
12:06am 9 11 mph 1012.3mb 75f 76f
12:00am 10 13 mph - 75f 76f
Fri 07/22 11:54pm 10 13 mph - 75f 77f
11:48pm 10 14 mph 1012.3mb 75f 77f
11:42pm 10 14 mph 1012.2mb 75f 77f
11:36pm 10 14 mph 1012.1mb 75f 78f
11:30pm 9 14 mph 1012.1mb 75f 77f
11:24pm 9 13 mph 1012.1mb 75f 77f
11:18pm 9 13 mph 1012.1mb 75f 77f
11:12pm 9 13 mph 1012.1mb 75f 78f
11:06pm 10 14 mph 1012.1mb 75f 78f
11:00pm  -  mph - 75f 78f
10:54pm  -  mph - 75f 78f
10:48pm 9 14 mph - - -
10:42pm 9 14 mph - - -
10:36pm 8 10 mph - - -
10:30pm 7 10 mph - 75f -
10:24pm 8 11 mph - 75f -
10:18pm 10 13 mph - 75f 80f
10:12pm 9 14 mph - 75f 79f
10:06pm 7 13 mph - 75f 79f
10:00pm 5 7 mph - 75f 78f
9:54pm 5 7 mph - 75f 78f
9:48pm 5 8 mph - - -
9:42pm 6 8 mph - - -
9:36pm 5 9 mph - - -
9:30pm 6 8 mph - 75f -
9:24pm 3 7 mph - 75f -
9:18pm 6 7 mph 1011.9mb 75f -
9:12pm 5 8 mph 1012mb 75f -
9:06pm 6 9 mph 1012mb 75f -
9:00pm  -  mph - 75f 79f
8:54pm  -  mph - 75f 81f
8:48pm 10 14 mph - - -
8:42pm 10 14 mph - - -
8:36pm 10 13 mph - - -
8:30pm 9 13 mph - - 80f
8:24pm 10 14 mph - - 80f
8:18pm  -  mph - 75f -
8:12pm  -  mph - 75f -
8:06pm  -  mph - 75f -
8:00pm  -  mph - - 80f
7:54pm  -  mph - - 81f
7:48pm 9 13 mph - 75f -
7:42pm 9 13 mph - 75f -
7:36pm 9 11 mph - 75f -
7:30pm 10 14 mph - 75f -
7:24pm 10 13 mph - 75f -
7:18pm 10 14 mph - 75f -
7:12pm 11 16 mph - 75f -
7:06pm 10 16 mph - 75f -
7:00pm 9 13 mph - 75f -
6:54pm 9 14 mph - 75f -
6:48pm 11 15 mph - 75f -
6:42pm 14 16 mph - 75f -
6:36pm 13 15 mph - 75f -
6:30pm 13 15 mph - 75f 83f
6:24pm 11 14 mph - 76f 83f
6:18pm  -  mph - 76f 83f
6:12pm  -  mph - 75f 84f
6:06pm  -  mph - 75f 84f
6:00pm  -  mph - 76f -
5:54pm  -  mph - 76f -
5:48pm 8 9 mph - 76f 84f
5:42pm 8 10 mph - 76f 84f
5:36pm 8 11 mph - 76f 84f
5:30pm 11 14 mph 1012.4mb 76f 84f
5:24pm 13 15 mph 1012.5mb 76f 85f
5:18pm 11 14 mph 1012.6mb 76f 84f
5:12pm 9 13 mph 1012.7mb 76f 84f
5:06pm 11 13 mph 1012.7mb 76f 84f
5:00pm 10 13 mph 1012.8mb 76f 83f
4:54pm 8 9 mph 1012.9mb 75f 83f
4:48pm 7 9 mph 1012.9mb 75f 83f
4:42pm 7 8 mph 1013.1mb 74f 84f
4:36pm 6 8 mph 1013.2mb 74f 84f
4:30pm 6 8 mph 1013.3mb 74f 84f
4:24pm 7 9 mph 1013.3mb 74f 85f
4:18pm 8 10 mph 1013.3mb 74f 84f
4:12pm 7 9 mph 1013.4mb 74f 84f
4:06pm 8 9 mph 1013.4mb 74f 84f
4:00pm 7 8 mph 1013.5mb 74f 83f
3:54pm 9 11 mph 1013.5mb 74f 83f
3:48pm 8 10 mph 1013.5mb 74f 84f
3:42pm 8 10 mph 1013.5mb 74f 84f
3:36pm 7 9 mph 1013.5mb 74f 84f
3:30pm 8 9 mph 1013.5mb 74f 83f
3:24pm 7 8 mph 1013.7mb 74f 83f
3:18pm 7 9 mph 1013.8mb 74f 83f
3:12pm 7 8 mph 1013.8mb 74f 83f
3:06pm 6 7 mph 1013.9mb 74f 84f
3:00pm 7 8 mph 1013.9mb 74f 83f
2:54pm 5 6 mph 1014.1mb 74f 84f
2:48pm 7 8 mph 1014.2mb 73f 83f
2:42pm 7 9 mph 1014.3mb 73f 83f
2:36pm 7 8 mph 1014.4mb 73f 83f
2:30pm 6 8 mph 1014.5mb 73f 84f
2:24pm 7 8 mph 1014.5mb 73f 83f
2:18pm 6 9 mph 1014.6mb 73f 83f
2:12pm 7 8 mph 1014.7mb 73f 83f
2:06pm 7 9 mph 1014.8mb 73f 83f
2:00pm 8 10 mph 1014.8mb 73f 82f
1:54pm 8 10 mph 1014.8mb 73f 82f
1:48pm 7 9 mph 1014.8mb 73f 85f
1:42pm 9 11 mph 1014.8mb 73f 84f
1:36pm 8 11 mph 1014.8mb 73f 83f
1:30pm 8 10 mph 1014.9mb 73f 82f
1:24pm 8 10 mph 1014.9mb 73f 82f
1:18pm 8 9 mph 1014.9mb 73f 82f
1:12pm 7 9 mph 1014.9mb 73f 81f
1:06pm 7 9 mph 1015mb 73f 80f
1:00pm 6 8 mph 1015mb 73f 79f
12:54pm 7 8 mph 1015.1mb 73f 79f
12:48pm 7 8 mph 1015.1mb 72f 79f
12:42pm 7 9 mph 1015.2mb 73f 79f
12:36pm 8 10 mph 1015.2mb 73f 79f
12:30pm 8 10 mph 1015.2mb 73f 79f
12:24pm 8 11 mph 1015.2mb 73f 80f
12:18pm 8 10 mph 1015.2mb 73f 80f
12:12pm 8 10 mph 1015.3mb 73f 80f
12:06pm 9 11 mph 1015.3mb 73f 80f
12:00pm 8 11 mph 1015.3mb 73f 80f
11:54am 9 11 mph 1015.3mb 73f 81f
11:48am 8 10 mph 1015.3mb 73f 81f
11:42am 8 10 mph 1015.3mb 73f 81f
11:36am 8 10 mph 1015.4mb 73f 81f
11:30am 9 13 mph 1015.5mb 73f 81f
11:24am 9 10 mph 1015.5mb 73f 81f
11:18am 9 13 mph 1015.5mb 73f 81f
11:12am 9 11 mph 1015.6mb 73f 80f
11:06am 8 11 mph 1015.7mb 73f 80f
11:00am 8 11 mph 1015.8mb 73f 80f
10:54am 8 10 mph 1015.8mb 73f 79f
10:48am 7 9 mph 1015.9mb 73f 79f
10:42am 8 10 mph 1016mb 73f 79f
10:36am 9 11 mph 1016.1mb 73f 79f
10:30am 8 11 mph 1016mb 73f 79f
10:24am 9 11 mph 1016mb 73f 79f
10:18am 10 14 mph 1016mb 73f 79f
10:12am 10 14 mph 1016mb 73f 79f
10:06am 9 14 mph 1016.1mb 73f 78f
10:00am 10 14 mph 1016.2mb 73f 79f
9:54am 10 13 mph 1016.3mb 72f 78f
9:48am 9 13 mph 1016.3mb 72f 78f
9:42am 9 13 mph 1016.4mb 72f 78f
9:36am 8 11 mph 1016.6mb 72f 78f
9:30am 9 10 mph 1016.7mb 72f 77f
9:24am 9 13 mph 1016.7mb 72f 77f
9:18am 9 13 mph 1016.6mb 72f 77f
9:12am 9 13 mph 1016.5mb 72f 77f
9:06am 10 14 mph 1016.5mb 72f 77f
9:00am 9 13 mph 1016.5mb 72f 78f
8:54am 13 16 mph 1016.4mb 72f 77f
8:48am 11 16 mph 1016.4mb 72f 77f
8:42am 11 16 mph 1016.4mb 72f 77f
8:36am 10 16 mph 1016.6mb 72f 77f
8:30am 10 15 mph 1016.6mb 72f 76f
8:24am 10 15 mph 1016.5mb 72f 76f
8:18am 9 15 mph 1016.5mb 72f 76f
8:12am 11 15 mph 1016.5mb 72f 76f
8:06am 11 15 mph 1016.5mb 72f 76f
8:00am 9 11 mph 1016.5mb 72f 76f
7:54am 10 14 mph 1016.6mb 72f 75f
7:48am 10 14 mph 1016.5mb 72f 75f
7:42am 13 15 mph 1016.6mb 72f 75f
7:36am 9 14 mph 1016.7mb 72f 75f
7:30am 8 13 mph 1016.8mb 72f 75f
7:24am 8 11 mph 1016.9mb 72f 74f
7:18am 7 11 mph 1016.9mb 72f 74f
7:12am 7 11 mph 1017mb 72f 74f
7:06am 7 9 mph 1017.1mb 72f 74f
7:00am 7 9 mph 1017.2mb 72f 74f
6:54am 7 9 mph 1017.2mb 72f 74f
6:48am 7 9 mph 1017.2mb 72f 74f
6:42am 7 10 mph 1017.2mb 72f 74f
6:36am 6 9 mph 1017.2mb 73f 74f
6:30am 7 10 mph 1017.2mb 73f 74f
6:24am 6 8 mph 1017.2mb 73f 74f
6:18am 7 9 mph 1017.1mb 73f 74f
6:12am 7 11 mph 1017mb 73f 74f
6:06am 7 10 mph 1017.1mb 73f 74f
6:00am 7 10 mph 1017.1mb 73f 74f
5:54am 7 10 mph 1017.1mb 73f 74f
5:48am 6 9 mph 1017.1mb 73f 74f
5:42am 7 9 mph 1017.1mb 73f 75f
5:36am 9 13 mph 1017.2mb 73f 75f
5:30am 9 11 mph 1017.2mb 73f 75f
5:24am 8 10 mph 1017.3mb 73f 74f
5:18am 8 11 mph 1017.3mb 73f 74f
5:12am 6 9 mph 1017.2mb 73f 74f
5:06am 8 10 mph 1017.2mb 73f 74f
5:00am 8 10 mph 1017.1mb 73f 74f
4:54am 5 8 mph 1017mb 73f 73f
4:48am 6 9 mph 1016.9mb 73f 73f
4:42am 7 9 mph 1016.8mb 73f 73f
4:36am 7 10 mph 1016.8mb 73f 73f
4:30am 7 10 mph 1016.7mb 73f 73f
4:24am 8 10 mph 1016.6mb 73f 73f
4:18am 7 10 mph 1016.5mb 73f 73f
4:12am 8 13 mph 1016.5mb 73f 73f
4:06am 7 10 mph 1016.7mb 72f 73f
4:00am 8 11 mph 1016.7mb 72f 73f
3:54am 8 11 mph 1016.8mb 72f 73f
3:48am 7 10 mph 1016.8mb 72f 73f
3:42am 7 9 mph 1016.8mb 72f 73f
3:36am 7 10 mph 1016.8mb 72f 73f
3:30am 7 10 mph 1016.9mb 72f 73f
3:24am 6 8 mph 1017.1mb 72f 73f
3:18am 6 8 mph 1017.2mb 73f 73f
3:12am 6 8 mph 1017.4mb 73f 73f
3:06am 6 9 mph 1017.4mb 73f 73f
3:00am 5 7 mph 1017.4mb 73f 73f
2:54am 6 7 mph 1017.5mb 73f 73f
2:48am 6 8 mph 1017.5mb 73f -
2:42am 6 9 mph 1017.4mb 73f -
2:36am 7 8 mph 1017.3mb 73f -
2:30am 6 9 mph 1017.3mb 73f 73f
2:24am 7 8 mph 1017.4mb 73f 73f
2:18am 7 9 mph 1017.5mb 73f 73f
2:12am 7 11 mph 1017.5mb 74f 73f
2:06am 8 11 mph 1017.6mb 74f 74f
2:00am 8 11 mph 1017.6mb 74f 74f
1:54am 6 9 mph 1017.5mb 74f 73f
1:48am 6 8 mph 1017.7mb - -
1:42am 6 9 mph 1017.7mb - -
1:36am 7 9 mph 1017.8mb - -
1:30am 6 8 mph 1017.9mb 74f 73f
1:24am 6 8 mph 1018mb 74f 73f
1:18am 7 8 mph 1018mb 74f 73f
1:12am 7 10 mph 1018mb 74f 73f
1:06am 9 11 mph 1018mb 74f 74f
1:00am 10 14 mph 1018mb 74f 74f
12:54am 8 13 mph 1018.1mb 74f 74f
12:48am 8 11 mph 1018.2mb 74f 74f
12:42am 7 10 mph 1018.3mb 74f 74f
12:36am 7 10 mph 1018.4mb 74f 74f
12:30am 6 9 mph 1018.4mb 74f 74f
12:24am 6 9 mph 1018.4mb 74f 74f
12:18am 6 8 mph 1018.5mb 74f 75f
12:12am 7 10 mph 1018.6mb 74f 75f
12:06am 6 10 mph 1018.6mb 73f 75f
12:00am 6 10 mph 1018.6mb 73f 74f
Thu 07/21 11:54pm 6 10 mph 1018.6mb 73f 75f
11:48pm 6 9 mph 1018.7mb 74f 74f
11:42pm 7 10 mph 1018.7mb 75f 74f
11:36pm 7 11 mph 1018.7mb 75f 74f
11:30pm 6 9 mph 1018.8mb 75f 74f
11:24pm 6 8 mph 1018.9mb 75f 74f
11:18pm 6 8 mph - 75f 74f
11:12pm 6 8 mph - 75f 74f
11:06pm 5 7 mph - 75f 74f
11:00pm  -  mph - 75f 74f
10:54pm  -  mph - 75f 74f
10:48pm 6 7 mph - 75f -
10:42pm 6 8 mph - 75f -
10:36pm 6 8 mph - 75f -
10:30pm 6 9 mph - 75f -
10:24pm 7 9 mph - 75f -
10:18pm 7 9 mph - 75f 74f
10:12pm 6 9 mph - 75f 74f
10:06pm 7 10 mph - 75f 74f
10:00pm  -  mph - 75f 74f
9:54pm  -  mph - 75f 74f
9:48pm 7 8 mph - - -
9:42pm 6 8 mph - - -
9:36pm 7 9 mph - - -
9:30pm 6 8 mph - 75f -
9:24pm 7 9 mph - 75f -
9:18pm 7 9 mph - 75f -
9:12pm 7 9 mph - 75f -
9:06pm 8 10 mph - 75f -
9:00pm  -  mph - 75f 75f
8:54pm  -  mph - 75f 75f
8:48pm  -  mph - 75f -
8:42pm  -  mph - 75f -
8:36pm  -  mph - 74f -
8:30pm  -  mph - 74f -
8:24pm  -  mph - 74f -
8:18pm 8 11 mph 1018.7mb 74f -
8:12pm 9 13 mph 1018.7mb 74f -
8:06pm 9 13 mph 1018.6mb 74f -
8:00pm  -  mph - 74f 76f
7:54pm  -  mph - 75f 76f
7:48pm  -  mph - 75f -
7:42pm  -  mph - 75f -
7:36pm  -  mph - 74f -
7:30pm  -  mph - 74f -
7:24pm  -  mph - 74f -
7:18pm 9 13 mph - 74f 77f
7:12pm 9 14 mph - 74f 77f
7:06pm 8 13 mph - 74f 77f
7:00pm  -  mph - 74f -
6:54pm  -  mph - 74f -
6:48pm  -  mph - 74f -
6:42pm  -  mph - 75f -
6:36pm  -  mph - 75f -
6:30pm  -  mph - 75f -
6:24pm  -  mph - 75f -
6:18pm  -  mph 1019.4mb 75f 78f
6:12pm  -  mph 1019.4mb 75f 78f
6:06pm  -  mph 1019.5mb 75f 78f
6:00pm  -  mph - 75f 78f
5:54pm  -  mph - 75f 78f
5:48pm 10 15 mph 1019.6mb 76f 78f
5:42pm 13 17 mph 1019.7mb 76f 78f
5:36pm 10 13 mph 1019.8mb 76f 78f
5:30pm 13 16 mph 1019.7mb 76f 78f
5:24pm 13 16 mph 1019.8mb 76f 78f
5:18pm 14 16 mph 1019.8mb 76f 78f
5:12pm 11 15 mph 1019.8mb 76f 78f
5:06pm 14 17 mph 1019.8mb 76f 78f
5:00pm 11 15 mph 1019.8mb 76f 78f
4:54pm 9 13 mph 1019.8mb 76f 78f
4:48pm 10 13 mph 1019.9mb 76f 78f
4:42pm 13 15 mph 1019.9mb 76f 78f
4:36pm 9 15 mph 1019.9mb 76f 78f
4:30pm 13 16 mph 1019.8mb 76f 78f
4:24pm 11 15 mph 1019.9mb 76f 78f
4:18pm 11 14 mph 1020mb 76f 78f
4:12pm 11 14 mph 1020.1mb 76f 78f
4:06pm 9 11 mph 1020.2mb 76f 78f
4:00pm 8 13 mph 1020.2mb 76f 78f
3:54pm 9 13 mph 1020.2mb 76f 78f
3:48pm 10 14 mph 1020.3mb 76f 78f
3:42pm 11 14 mph 1020.2mb 76f 78f
3:36pm 11 15 mph 1020.2mb 76f 78f
3:30pm 13 15 mph 1020.1mb 76f 78f
3:24pm 11 14 mph 1020.1mb 76f 78f
3:18pm 11 15 mph 1020.2mb 75f 78f
3:12pm 10 14 mph 1020.3mb 75f 78f
3:06pm 11 14 mph 1020.3mb 75f 78f
3:00pm 9 11 mph 1020.4mb 75f 78f
2:54pm 11 15 mph 1020.3mb 74f 78f
2:48pm 9 11 mph 1020.4mb 74f 78f
2:42pm 8 11 mph 1020.5mb 75f 78f
2:36pm 8 11 mph 1020.5mb 75f 78f
2:30pm 10 13 mph 1020.5mb 74f 78f
2:24pm 9 13 mph 1020.6mb 74f 78f
2:18pm 7 9 mph 1020.8mb 74f 78f
2:12pm 8 10 mph 1020.9mb 74f 78f
2:06pm 10 13 mph 1020.9mb 74f 78f
2:00pm 9 11 mph 1020.9mb 74f 79f
1:54pm 8 11 mph 1020.9mb 73f 78f
1:48pm 10 13 mph 1020.8mb 73f 78f
1:42pm 7 13 mph 1020.9mb 73f 79f
1:36pm 9 13 mph 1020.9mb 73f 79f
1:30pm 8 10 mph 1021mb 73f 79f
1:24pm 7 10 mph 1021.2mb 72f 80f
1:18pm 6 8 mph 1021.3mb 72f 80f
1:12pm 6 9 mph 1021.4mb 72f 80f
1:06pm 8 10 mph 1021.4mb 73f 79f
1:00pm 8 9 mph 1021.3mb 73f 78f
12:54pm 8 10 mph 1021.4mb 72f 79f
12:48pm 8 10 mph 1021.4mb 71f 78f
12:42pm 9 11 mph 1021.5mb 71f 78f
12:36pm 9 10 mph 1021.7mb 71f 76f
12:30pm 10 11 mph 1021.7mb 71f 76f
12:24pm 8 9 mph 1021.7mb 71f 76f
12:18pm 9 10 mph 1021.7mb 71f 76f
12:12pm 7 8 mph 1021.8mb 71f 76f
12:06pm 8 9 mph 1021.8mb 71f 76f
12:00pm 9
mph
1021.9mb 70f 76f
11:54am 8
mph
1021.8mb 70f 76f
11:48am 8 9 mph 1021.8mb 70f 76f
11:42am 8
mph
1021.9mb 70f 76f
11:36am 7 8 mph 1021.8mb 71f 76f
11:30am 8
mph
1021.7mb 71f 76f
11:24am 7
mph
1021.6mb 72f 76f
11:18am 7
mph
1021.6mb 72f 76f
11:12am 7 8 mph 1021.6mb 72f 76f
11:06am 7
mph
1021.7mb 72f 76f
11:00am 7
mph
1021.7mb 72f 76f
10:54am 7
mph
1021.7mb 72f 76f
10:48am 6 7 mph 1021.7mb 72f 76f
10:42am 6 7 mph 1021.8mb 72f 76f
10:36am 6 7 mph 1021.8mb 72f 76f
10:30am 7
mph
1021.8mb 72f 76f
10:24am 6 7 mph 1021.8mb 72f 77f
10:18am 6
mph
1021.8mb 72f 77f
10:12am 6
mph
1021.9mb 72f 77f
10:06am 6
mph
1021.9mb 72f 77f
10:00am 6
mph
1022mb 72f 77f
9:54am 5 6 mph 1021.9mb 71f 77f
9:48am 6
mph
1021.9mb 71f 77f
9:42am 6
mph
1022mb 71f 76f
9:36am 5
mph
1021.9mb 71f 78f
9:30am 5
mph
1021.9mb 71f 79f
9:24am 5
mph
1021.8mb 71f 79f
9:18am 3
mph
1021.8mb 71f 78f
9:12am 3
mph
1021.7mb 71f 78f
9:06am 5 6 mph 1021.7mb 71f 78f
9:00am 3 5 mph 1021.8mb 71f 78f
8:54am 3
mph
1021.9mb 71f 78f
8:48am 2 3 mph 1022mb 71f 78f
8:42am 2
mph
1021.9mb 71f 78f
8:36am 2 3 mph 1022.1mb 70f 78f
8:30am 2 3 mph 1022.1mb 70f 79f
8:24am 2
mph
1022.1mb 70f 78f
8:18am  -  2 mph 1022.2mb 70f 78f
8:12am  -  1 mph 1022.1mb 69f 77f
8:06am 2
mph
1022.1mb 69f 78f
8:00am 1
mph
1022.1mb 69f 76f
7:54am 1 2 mph 1022mb 69f 78f
7:48am 1 2 mph 1021.9mb 69f 76f
7:42am  -  1 mph 1021.9mb 69f 78f
7:36am  -  1 mph 1021.8mb 69f 76f
7:30am  -  mph 1021.7mb 69f 78f
7:24am  -  1 mph 1021.6mb 69f 74f
7:18am 2
mph
1021.4mb 69f 72f
7:12am 1 2 mph 1021.4mb 69f 73f
7:06am 2
mph
1021.4mb 69f 73f
7:00am 1 2 mph 1021.3mb 69f 71f
6:54am 1
mph
1021.3mb 69f 72f
6:48am 1 2 mph 1021.3mb 69f 71f
6:42am 1 2 mph 1021.3mb 69f 70f
6:36am  -  1 mph 1021.2mb 69f 71f
6:30am 2
mph
1021.2mb 69f 69f